KPSO

Stevens Field Airport

Pagosa Springs, Colorado, USA
METAR KPSO 181435Z AUTO 00000KT 10SM VCTS CLR 16/09 A3041 RMK AO2 LTG DSNT NW T01640090
Observed Flight Rules
Aug-18 @ 14:35 UTC (16 minutes ago) Visual Flight Rules
Visibility Clouds Conditions
10 miles
  • Clear skies
  • Area Thunderstorm
Temperatures Readings
Current 16°C / 61°F
Dewpoint 9°C / 48°F
Humidity 63%
Altimeter 30.41" Hg
Pressure 1030 hPa
Elevation 2334
METAR KPSO 181435Z AUTO 00000KT 10SM VCTS CLR 16/09 A3041 RMK AO2 LTG DSNT NW T01640090
Observed Flight Rules
Aug-18 @ 14:35 UTC
(16 minutes ago)
VFR
Clouds
  • Clear skies
Conditions
  • Area Thunderstorm
Temperature Dewpoint
16°C / 61°F 9°C / 48°F
Humidity Altimeter Pressure
63% 30.41" Hg 1030 hPa